sensor_id;sensor_type;location;lat;lon;timestamp;P1;durP1;ratioP1;P2;durP2;ratioP2
56081;SDS011;41957;52.060;5.138;2022-12-13T00:01:25;17.95;;;8.95;;
56081;SDS011;41957;52.060;5.138;2022-12-13T00:03:52;18.35;;;8.25;;
56081;SDS011;41957;52.060;5.138;2022-12-13T00:06:18;18.05;;;9.45;;
56081;SDS011;41957;52.060;5.138;2022-12-13T00:08:44;18.58;;;8.77;;
56081;SDS011;41957;52.060;5.138;2022-12-13T00:11:11;17.88;;;8.00;;
56081;SDS011;41957;52.060;5.138;2022-12-13T00:13:38;17.92;;;8.73;;
56081;SDS011;41957;52.060;5.138;2022-12-13T00:16:06;17.83;;;8.80;;
56081;SDS011;41957;52.060;5.138;2022-12-13T00:18:34;17.10;;;8.20;;
56081;SDS011;41957;52.060;5.138;2022-12-13T00:21:02;18.98;;;8.93;;
56081;SDS011;41957;52.060;5.138;2022-12-13T00:23:29;17.52;;;8.25;;
56081;SDS011;41957;52.060;5.138;2022-12-13T00:25:55;17.15;;;8.55;;
56081;SDS011;41957;52.060;5.138;2022-12-13T00:28:26;15.88;;;8.00;;
56081;SDS011;41957;52.060;5.138;2022-12-13T00:30:55;16.80;;;8.27;;
56081;SDS011;41957;52.060;5.138;2022-12-13T00:33:21;17.95;;;8.75;;
56081;SDS011;41957;52.060;5.138;2022-12-13T00:35:47;16.45;;;8.25;;
56081;SDS011;41957;52.060;5.138;2022-12-13T00:38:12;17.00;;;8.35;;
56081;SDS011;41957;52.060;5.138;2022-12-13T00:40:37;16.73;;;7.70;;
56081;SDS011;41957;52.060;5.138;2022-12-13T00:43:02;16.65;;;8.35;;
56081;SDS011;41957;52.060;5.138;2022-12-13T00:45:28;17.35;;;8.52;;
56081;SDS011;41957;52.060;5.138;2022-12-13T00:47:53;17.08;;;7.45;;
56081;SDS011;41957;52.060;5.138;2022-12-13T00:50:18;16.70;;;8.23;;
56081;SDS011;41957;52.060;5.138;2022-12-13T00:52:44;16.10;;;7.90;;
56081;SDS011;41957;52.060;5.138;2022-12-13T00:55:09;17.75;;;8.23;;
56081;SDS011;41957;52.060;5.138;2022-12-13T00:57:34;16.85;;;8.05;;
56081;SDS011;41957;52.060;5.138;2022-12-13T01:00:00;17.90;;;8.40;;
56081;SDS011;41957;52.060;5.138;2022-12-13T01:02:25;17.70;;;8.38;;
56081;SDS011;41957;52.060;5.138;2022-12-13T01:04:51;16.67;;;7.85;;
56081;SDS011;41957;52.060;5.138;2022-12-13T01:07:16;16.77;;;7.30;;
56081;SDS011;41957;52.060;5.138;2022-12-13T01:09:41;16.10;;;7.88;;
56081;SDS011;41957;52.060;5.138;2022-12-13T01:12:07;17.10;;;8.60;;
56081;SDS011;41957;52.060;5.138;2022-12-13T01:14:35;15.90;;;8.20;;
56081;SDS011;41957;52.060;5.138;2022-12-13T01:17:03;15.75;;;6.95;;
56081;SDS011;41957;52.060;5.138;2022-12-13T01:19:29;16.63;;;7.28;;
56081;SDS011;41957;52.060;5.138;2022-12-13T01:21:59;16.45;;;8.00;;
56081;SDS011;41957;52.060;5.138;2022-12-13T01:24:26;17.88;;;8.02;;
56081;SDS011;41957;52.060;5.138;2022-12-13T01:26:52;16.60;;;7.80;;
56081;SDS011;41957;52.060;5.138;2022-12-13T01:29:19;15.88;;;7.90;;
56081;SDS011;41957;52.060;5.138;2022-12-13T01:31:45;17.17;;;8.40;;
56081;SDS011;41957;52.060;5.138;2022-12-13T01:34:11;15.70;;;7.25;;
56081;SDS011;41957;52.060;5.138;2022-12-13T01:36:38;15.65;;;7.53;;
56081;SDS011;41957;52.060;5.138;2022-12-13T01:39:04;17.05;;;8.07;;
56081;SDS011;41957;52.060;5.138;2022-12-13T01:41:31;15.52;;;7.68;;
56081;SDS011;41957;52.060;5.138;2022-12-13T01:44:00;16.67;;;8.20;;
56081;SDS011;41957;52.060;5.138;2022-12-13T01:46:31;16.63;;;8.13;;
56081;SDS011;41957;52.060;5.138;2022-12-13T01:49:09;16.77;;;8.07;;
56081;SDS011;41957;52.060;5.138;2022-12-13T01:51:41;16.45;;;7.78;;
56081;SDS011;41957;52.060;5.138;2022-12-13T01:54:11;16.70;;;8.30;;
56081;SDS011;41957;52.060;5.138;2022-12-13T01:56:44;15.98;;;6.85;;
56081;SDS011;41957;52.060;5.138;2022-12-13T01:59:13;15.73;;;8.00;;
56081;SDS011;41957;52.060;5.138;2022-12-13T02:01:41;15.35;;;7.05;;
56081;SDS011;41957;52.060;5.138;2022-12-13T02:04:07;17.08;;;7.60;;
56081;SDS011;41957;52.060;5.138;2022-12-13T02:06:37;15.55;;;7.72;;
56081;SDS011;41957;52.060;5.138;2022-12-13T02:09:07;17.50;;;8.02;;
56081;SDS011;41957;52.060;5.138;2022-12-13T02:11:40;16.13;;;8.23;;
56081;SDS011;41957;52.060;5.138;2022-12-13T02:14:07;16.02;;;7.28;;
56081;SDS011;41957;52.060;5.138;2022-12-13T02:22:31;15.77;;;7.20;;
56081;SDS011;41957;52.060;5.138;2022-12-13T02:27:48;16.90;;;9.05;;
56081;SDS011;41957;52.060;5.138;2022-12-13T02:30:40;16.65;;;7.40;;
56081;SDS011;41957;52.060;5.138;2022-12-13T02:43:55;15.13;;;6.88;;
56081;SDS011;41957;52.060;5.138;2022-12-13T02:46:26;15.07;;;6.80;;
56081;SDS011;41957;52.060;5.138;2022-12-13T02:48:55;17.17;;;8.57;;
56081;SDS011;41957;52.060;5.138;2022-12-13T02:51:22;16.77;;;7.90;;
56081;SDS011;41957;52.060;5.138;2022-12-13T02:53:49;16.45;;;6.95;;
56081;SDS011;41957;52.060;5.138;2022-12-13T02:56:15;16.58;;;6.82;;
56081;SDS011;41957;52.060;5.138;2022-12-13T02:58:41;16.35;;;7.53;;
56081;SDS011;41957;52.060;5.138;2022-12-13T03:06:38;15.50;;;7.32;;
56081;SDS011;41957;52.060;5.138;2022-12-13T03:17:39;15.45;;;7.00;;
56081;SDS011;41957;52.060;5.138;2022-12-13T03:20:09;15.05;;;7.43;;
56081;SDS011;41957;52.060;5.138;2022-12-13T03:22:40;16.25;;;7.25;;
56081;SDS011;41957;52.060;5.138;2022-12-13T03:25:06;16.25;;;7.72;;
56081;SDS011;41957;52.060;5.138;2022-12-13T03:27:31;16.10;;;7.30;;
56081;SDS011;41957;52.060;5.138;2022-12-13T03:29:56;17.05;;;7.53;;
56081;SDS011;41957;52.060;5.138;2022-12-13T03:32:23;16.52;;;7.68;;
56081;SDS011;41957;52.060;5.138;2022-12-13T03:34:49;15.90;;;6.85;;
56081;SDS011;41957;52.060;5.138;2022-12-13T03:37:14;17.90;;;7.55;;
56081;SDS011;41957;52.060;5.138;2022-12-13T03:39:39;15.43;;;7.15;;
56081;SDS011;41957;52.060;5.138;2022-12-13T03:42:05;14.32;;;6.22;;
56081;SDS011;41957;52.060;5.138;2022-12-13T03:44:30;16.00;;;6.55;;
56081;SDS011;41957;52.060;5.138;2022-12-13T03:46:55;15.90;;;7.10;;
56081;SDS011;41957;52.060;5.138;2022-12-13T03:49:21;15.50;;;6.90;;
56081;SDS011;41957;52.060;5.138;2022-12-13T03:51:46;15.27;;;7.07;;
56081;SDS011;41957;52.060;5.138;2022-12-13T03:54:11;16.75;;;7.07;;
56081;SDS011;41957;52.060;5.138;2022-12-13T03:56:37;15.00;;;7.40;;
56081;SDS011;41957;52.060;5.138;2022-12-13T03:59:02;16.85;;;6.78;;
56081;SDS011;41957;52.060;5.138;2022-12-13T04:01:28;16.33;;;7.40;;
56081;SDS011;41957;52.060;5.138;2022-12-13T04:03:53;15.32;;;7.10;;
56081;SDS011;41957;52.060;5.138;2022-12-13T04:06:18;16.38;;;6.97;;
56081;SDS011;41957;52.060;5.138;2022-12-13T04:08:44;16.17;;;7.53;;
56081;SDS011;41957;52.060;5.138;2022-12-13T04:11:09;15.95;;;6.95;;
56081;SDS011;41957;52.060;5.138;2022-12-13T04:13:53;16.48;;;7.20;;
56081;SDS011;41957;52.060;5.138;2022-12-13T04:16:19;15.95;;;6.65;;
56081;SDS011;41957;52.060;5.138;2022-12-13T04:18:45;15.25;;;7.80;;
56081;SDS011;41957;52.060;5.138;2022-12-13T04:21:11;15.60;;;6.80;;
56081;SDS011;41957;52.060;5.138;2022-12-13T04:23:36;16.23;;;7.68;;
56081;SDS011;41957;52.060;5.138;2022-12-13T04:26:01;15.80;;;7.18;;
56081;SDS011;41957;52.060;5.138;2022-12-13T04:28:27;16.80;;;7.30;;
56081;SDS011;41957;52.060;5.138;2022-12-13T04:30:52;16.05;;;7.22;;
56081;SDS011;41957;52.060;5.138;2022-12-13T04:33:17;17.13;;;8.30;;
56081;SDS011;41957;52.060;5.138;2022-12-13T04:35:45;15.82;;;7.20;;
56081;SDS011;41957;52.060;5.138;2022-12-13T04:38:11;15.13;;;6.95;;
56081;SDS011;41957;52.060;5.138;2022-12-13T04:40:36;16.65;;;6.93;;
56081;SDS011;41957;52.060;5.138;2022-12-13T04:43:01;16.02;;;7.25;;
56081;SDS011;41957;52.060;5.138;2022-12-13T04:45:27;15.82;;;7.00;;
56081;SDS011;41957;52.060;5.138;2022-12-13T04:47:52;17.42;;;7.68;;
56081;SDS011;41957;52.060;5.138;2022-12-13T04:50:17;17.80;;;6.80;;
56081;SDS011;41957;52.060;5.138;2022-12-13T04:52:43;17.05;;;7.03;;
56081;SDS011;41957;52.060;5.138;2022-12-13T04:55:09;15.90;;;6.88;;
56081;SDS011;41957;52.060;5.138;2022-12-13T04:57:34;14.57;;;6.63;;
56081;SDS011;41957;52.060;5.138;2022-12-13T05:00:00;15.88;;;7.35;;
56081;SDS011;41957;52.060;5.138;2022-12-13T05:02:25;16.17;;;6.90;;
56081;SDS011;41957;52.060;5.138;2022-12-13T05:04:50;15.93;;;6.90;;
56081;SDS011;41957;52.060;5.138;2022-12-13T05:07:16;16.95;;;8.27;;
56081;SDS011;41957;52.060;5.138;2022-12-13T05:09:41;16.00;;;7.13;;
56081;SDS011;41957;52.060;5.138;2022-12-13T05:12:07;15.52;;;7.20;;
56081;SDS011;41957;52.060;5.138;2022-12-13T05:14:32;15.25;;;6.40;;
56081;SDS011;41957;52.060;5.138;2022-12-13T05:16:58;14.70;;;7.05;;
56081;SDS011;41957;52.060;5.138;2022-12-13T05:19:24;16.25;;;7.80;;
56081;SDS011;41957;52.060;5.138;2022-12-13T05:21:50;16.20;;;6.82;;
56081;SDS011;41957;52.060;5.138;2022-12-13T05:24:15;16.23;;;7.25;;
56081;SDS011;41957;52.060;5.138;2022-12-13T05:26:41;16.00;;;7.15;;
56081;SDS011;41957;52.060;5.138;2022-12-13T05:29:06;15.52;;;6.97;;
56081;SDS011;41957;52.060;5.138;2022-12-13T05:31:31;15.40;;;7.05;;
56081;SDS011;41957;52.060;5.138;2022-12-13T05:33:57;17.13;;;6.63;;
56081;SDS011;41957;52.060;5.138;2022-12-13T05:36:22;17.45;;;6.75;;
56081;SDS011;41957;52.060;5.138;2022-12-13T05:38:49;15.65;;;6.78;;
56081;SDS011;41957;52.060;5.138;2022-12-13T05:41:16;16.08;;;7.15;;
56081;SDS011;41957;52.060;5.138;2022-12-13T05:43:43;17.17;;;6.93;;
56081;SDS011;41957;52.060;5.138;2022-12-13T05:46:09;16.40;;;7.25;;
56081;SDS011;41957;52.060;5.138;2022-12-13T05:48:36;15.25;;;7.13;;
56081;SDS011;41957;52.060;5.138;2022-12-13T05:51:01;15.93;;;6.70;;
56081;SDS011;41957;52.060;5.138;2022-12-13T05:53:26;16.30;;;6.53;;
56081;SDS011;41957;52.060;5.138;2022-12-13T05:55:52;15.75;;;6.60;;
56081;SDS011;41957;52.060;5.138;2022-12-13T05:58:17;16.70;;;6.88;;
56081;SDS011;41957;52.060;5.138;2022-12-13T06:00:43;16.17;;;6.60;;
56081;SDS011;41957;52.060;5.138;2022-12-13T06:03:08;15.63;;;7.22;;
56081;SDS011;41957;52.060;5.138;2022-12-13T06:05:33;16.92;;;8.02;;
56081;SDS011;41957;52.060;5.138;2022-12-13T06:07:59;16.00;;;6.65;;
56081;SDS011;41957;52.060;5.138;2022-12-13T06:10:25;15.05;;;6.40;;
56081;SDS011;41957;52.060;5.138;2022-12-13T06:12:51;16.20;;;6.70;;
56081;SDS011;41957;52.060;5.138;2022-12-13T06:15:16;16.23;;;7.47;;
56081;SDS011;41957;52.060;5.138;2022-12-13T06:17:42;16.52;;;7.10;;
56081;SDS011;41957;52.060;5.138;2022-12-13T06:20:07;14.77;;;6.35;;
56081;SDS011;41957;52.060;5.138;2022-12-13T06:22:33;16.05;;;7.35;;
56081;SDS011;41957;52.060;5.138;2022-12-13T06:24:58;15.68;;;7.07;;
56081;SDS011;41957;52.060;5.138;2022-12-13T06:27:25;14.93;;;6.95;;
56081;SDS011;41957;52.060;5.138;2022-12-13T06:29:51;15.50;;;6.90;;
56081;SDS011;41957;52.060;5.138;2022-12-13T06:32:16;16.42;;;7.15;;
56081;SDS011;41957;52.060;5.138;2022-12-13T06:34:41;16.83;;;6.72;;
56081;SDS011;41957;52.060;5.138;2022-12-13T06:37:07;16.15;;;7.18;;
56081;SDS011;41957;52.060;5.138;2022-12-13T06:39:35;16.52;;;7.63;;
56081;SDS011;41957;52.060;5.138;2022-12-13T06:42:01;18.25;;;7.88;;
56081;SDS011;41957;52.060;5.138;2022-12-13T06:44:29;16.35;;;7.47;;
56081;SDS011;41957;52.060;5.138;2022-12-13T06:46:55;16.50;;;7.50;;
56081;SDS011;41957;52.060;5.138;2022-12-13T06:49:20;15.68;;;7.60;;
56081;SDS011;41957;52.060;5.138;2022-12-13T06:51:46;16.10;;;6.85;;
56081;SDS011;41957;52.060;5.138;2022-12-13T06:54:11;16.40;;;7.43;;
56081;SDS011;41957;52.060;5.138;2022-12-13T06:56:36;17.40;;;7.90;;
56081;SDS011;41957;52.060;5.138;2022-12-13T06:59:02;16.30;;;7.78;;
56081;SDS011;41957;52.060;5.138;2022-12-13T07:01:27;17.33;;;7.32;;
56081;SDS011;41957;52.060;5.138;2022-12-13T07:03:54;17.85;;;7.55;;
56081;SDS011;41957;52.060;5.138;2022-12-13T07:06:20;17.05;;;8.43;;
56081;SDS011;41957;52.060;5.138;2022-12-13T07:08:48;17.17;;;7.78;;
56081;SDS011;41957;52.060;5.138;2022-12-13T07:11:16;16.00;;;7.28;;
56081;SDS011;41957;52.060;5.138;2022-12-13T07:13:43;17.05;;;7.70;;
56081;SDS011;41957;52.060;5.138;2022-12-13T07:16:09;18.38;;;8.50;;
56081;SDS011;41957;52.060;5.138;2022-12-13T07:18:36;19.38;;;8.05;;
56081;SDS011;41957;52.060;5.138;2022-12-13T07:21:09;19.50;;;7.88;;
56081;SDS011;41957;52.060;5.138;2022-12-13T07:23:37;18.10;;;7.78;;
56081;SDS011;41957;52.060;5.138;2022-12-13T07:26:03;19.95;;;8.02;;
56081;SDS011;41957;52.060;5.138;2022-12-13T07:28:36;17.30;;;7.50;;
56081;SDS011;41957;52.060;5.138;2022-12-13T07:31:03;18.10;;;7.78;;
56081;SDS011;41957;52.060;5.138;2022-12-13T07:33:31;16.40;;;7.43;;
56081;SDS011;41957;52.060;5.138;2022-12-13T07:36:01;17.25;;;7.70;;
56081;SDS011;41957;52.060;5.138;2022-12-13T07:38:27;16.40;;;7.65;;
56081;SDS011;41957;52.060;5.138;2022-12-13T07:40:54;17.42;;;8.30;;
56081;SDS011;41957;52.060;5.138;2022-12-13T07:43:21;17.52;;;7.45;;
56081;SDS011;41957;52.060;5.138;2022-12-13T07:45:47;16.27;;;7.95;;
56081;SDS011;41957;52.060;5.138;2022-12-13T07:48:12;19.05;;;7.65;;
56081;SDS011;41957;52.060;5.138;2022-12-13T07:50:37;17.30;;;8.02;;
56081;SDS011;41957;52.060;5.138;2022-12-13T07:53:06;19.17;;;8.15;;
56081;SDS011;41957;52.060;5.138;2022-12-13T07:55:32;16.50;;;7.90;;
56081;SDS011;41957;52.060;5.138;2022-12-13T07:58:05;18.50;;;8.45;;
56081;SDS011;41957;52.060;5.138;2022-12-13T08:00:32;16.83;;;7.70;;
56081;SDS011;41957;52.060;5.138;2022-12-13T08:02:58;16.23;;;7.70;;
56081;SDS011;41957;52.060;5.138;2022-12-13T08:05:25;18.02;;;8.40;;
56081;SDS011;41957;52.060;5.138;2022-12-13T08:07:51;16.27;;;7.07;;
56081;SDS011;41957;52.060;5.138;2022-12-13T08:10:17;16.40;;;7.45;;
56081;SDS011;41957;52.060;5.138;2022-12-13T08:12:43;18.15;;;7.07;;
56081;SDS011;41957;52.060;5.138;2022-12-13T08:15:08;16.08;;;7.72;;
56081;SDS011;41957;52.060;5.138;2022-12-13T08:17:34;15.57;;;7.28;;
56081;SDS011;41957;52.060;5.138;2022-12-13T08:19:59;17.05;;;7.90;;
56081;SDS011;41957;52.060;5.138;2022-12-13T08:22:24;16.63;;;7.97;;
56081;SDS011;41957;52.060;5.138;2022-12-13T08:24:50;16.70;;;8.48;;
56081;SDS011;41957;52.060;5.138;2022-12-13T08:27:15;18.52;;;9.15;;
56081;SDS011;41957;52.060;5.138;2022-12-13T08:29:41;17.67;;;7.95;;
56081;SDS011;41957;52.060;5.138;2022-12-13T08:32:08;16.40;;;7.57;;
56081;SDS011;41957;52.060;5.138;2022-12-13T08:34:34;17.05;;;7.78;;
56081;SDS011;41957;52.060;5.138;2022-12-13T08:37:00;19.63;;;8.25;;
56081;SDS011;41957;52.060;5.138;2022-12-13T08:39:26;18.77;;;8.15;;
56081;SDS011;41957;52.060;5.138;2022-12-13T08:41:51;18.50;;;8.25;;
56081;SDS011;41957;52.060;5.138;2022-12-13T08:44:16;19.00;;;8.77;;
56081;SDS011;41957;52.060;5.138;2022-12-13T08:46:42;17.65;;;8.57;;
56081;SDS011;41957;52.060;5.138;2022-12-13T08:49:07;19.05;;;8.75;;
56081;SDS011;41957;52.060;5.138;2022-12-13T08:51:32;20.48;;;8.90;;
56081;SDS011;41957;52.060;5.138;2022-12-13T08:53:58;19.08;;;9.13;;
56081;SDS011;41957;52.060;5.138;2022-12-13T08:56:23;20.15;;;9.23;;
56081;SDS011;41957;52.060;5.138;2022-12-13T08:58:48;17.65;;;8.80;;
56081;SDS011;41957;52.060;5.138;2022-12-13T09:01:15;21.50;;;9.27;;
56081;SDS011;41957;52.060;5.138;2022-12-13T09:03:41;18.95;;;9.43;;
56081;SDS011;41957;52.060;5.138;2022-12-13T09:06:11;17.55;;;8.82;;
56081;SDS011;41957;52.060;5.138;2022-12-13T09:08:38;21.58;;;8.63;;
56081;SDS011;41957;52.060;5.138;2022-12-13T09:11:05;18.08;;;8.95;;
56081;SDS011;41957;52.060;5.138;2022-12-13T09:13:32;22.58;;;11.32;;
56081;SDS011;41957;52.060;5.138;2022-12-13T09:18:48;20.30;;;9.13;;
56081;SDS011;41957;52.060;5.138;2022-12-13T09:21:15;22.65;;;8.80;;
56081;SDS011;41957;52.060;5.138;2022-12-13T09:23:41;26.02;;;10.32;;
56081;SDS011;41957;52.060;5.138;2022-12-13T09:26:07;19.05;;;8.57;;
56081;SDS011;41957;52.060;5.138;2022-12-13T09:28:35;18.52;;;9.00;;
56081;SDS011;41957;52.060;5.138;2022-12-13T09:31:05;23.40;;;9.85;;
56081;SDS011;41957;52.060;5.138;2022-12-13T09:33:35;20.08;;;8.82;;
56081;SDS011;41957;52.060;5.138;2022-12-13T09:36:02;19.70;;;8.57;;
56081;SDS011;41957;52.060;5.138;2022-12-13T09:38:33;20.73;;;8.82;;
56081;SDS011;41957;52.060;5.138;2022-12-13T09:40:59;18.75;;;9.55;;
56081;SDS011;41957;52.060;5.138;2022-12-13T09:43:37;19.15;;;8.38;;
56081;SDS011;41957;52.060;5.138;2022-12-13T09:46:04;19.58;;;8.90;;
56081;SDS011;41957;52.060;5.138;2022-12-13T09:48:35;17.98;;;8.77;;
56081;SDS011;41957;52.060;5.138;2022-12-13T09:51:00;20.08;;;7.95;;
56081;SDS011;41957;52.060;5.138;2022-12-13T09:53:26;17.60;;;8.60;;
56081;SDS011;41957;52.060;5.138;2022-12-13T09:55:51;18.35;;;9.27;;
56081;SDS011;41957;52.060;5.138;2022-12-13T09:58:19;18.83;;;7.88;;
56081;SDS011;41957;52.060;5.138;2022-12-13T10:00:48;19.98;;;9.07;;
56081;SDS011;41957;52.060;5.138;2022-12-13T10:03:15;19.30;;;8.65;;
56081;SDS011;41957;52.060;5.138;2022-12-13T10:05:44;17.95;;;8.35;;
56081;SDS011;41957;52.060;5.138;2022-12-13T10:08:19;19.65;;;8.35;;
56081;SDS011;41957;52.060;5.138;2022-12-13T10:10:48;18.95;;;8.25;;
56081;SDS011;41957;52.060;5.138;2022-12-13T10:16:18;21.70;;;9.93;;
56081;SDS011;41957;52.060;5.138;2022-12-13T10:18:50;19.65;;;8.38;;
56081;SDS011;41957;52.060;5.138;2022-12-13T10:21:31;17.70;;;7.97;;
56081;SDS011;41957;52.060;5.138;2022-12-13T10:24:47;19.52;;;7.90;;
56081;SDS011;41957;52.060;5.138;2022-12-13T10:27:12;20.40;;;9.32;;
56081;SDS011;41957;52.060;5.138;2022-12-13T10:29:55;17.23;;;8.82;;
56081;SDS011;41957;52.060;5.138;2022-12-13T10:32:22;19.88;;;9.32;;
56081;SDS011;41957;52.060;5.138;2022-12-13T10:34:48;19.50;;;9.63;;
56081;SDS011;41957;52.060;5.138;2022-12-13T10:37:46;19.45;;;9.82;;
56081;SDS011;41957;52.060;5.138;2022-12-13T10:40:04;19.52;;;9.27;;
56081;SDS011;41957;52.060;5.138;2022-12-13T10:42:30;18.55;;;9.20;;
56081;SDS011;41957;52.060;5.138;2022-12-13T10:45:12;21.13;;;11.30;;
56081;SDS011;41957;52.060;5.138;2022-12-13T10:47:40;21.45;;;11.13;;
56081;SDS011;41957;52.060;5.138;2022-12-13T10:50:14;20.70;;;10.60;;
56081;SDS011;41957;52.060;5.138;2022-12-13T10:52:52;20.17;;;9.27;;
56081;SDS011;41957;52.060;5.138;2022-12-13T10:55:32;24.00;;;11.60;;
56081;SDS011;41957;52.060;5.138;2022-12-13T10:58:02;21.17;;;10.43;;
56081;SDS011;41957;52.060;5.138;2022-12-13T11:03:09;19.30;;;9.85;;
56081;SDS011;41957;52.060;5.138;2022-12-13T11:05:37;21.17;;;10.57;;
56081;SDS011;41957;52.060;5.138;2022-12-13T11:08:13;19.55;;;9.73;;
56081;SDS011;41957;52.060;5.138;2022-12-13T11:10:40;20.02;;;10.57;;
56081;SDS011;41957;52.060;5.138;2022-12-13T11:13:06;18.52;;;10.23;;
56081;SDS011;41957;52.060;5.138;2022-12-13T11:15:33;18.75;;;9.23;;
56081;SDS011;41957;52.060;5.138;2022-12-13T11:18:06;19.75;;;10.35;;
56081;SDS011;41957;52.060;5.138;2022-12-13T11:20:46;18.77;;;9.80;;
56081;SDS011;41957;52.060;5.138;2022-12-13T11:23:21;18.48;;;9.73;;
56081;SDS011;41957;52.060;5.138;2022-12-13T11:25:57;19.20;;;8.73;;
56081;SDS011;41957;52.060;5.138;2022-12-13T11:39:33;17.83;;;9.02;;
56081;SDS011;41957;52.060;5.138;2022-12-13T11:47:05;18.58;;;9.18;;
56081;SDS011;41957;52.060;5.138;2022-12-13T11:49:40;18.45;;;8.48;;
56081;SDS011;41957;52.060;5.138;2022-12-13T11:55:04;18.20;;;9.48;;
56081;SDS011;41957;52.060;5.138;2022-12-13T12:03:22;20.88;;;9.25;;
56081;SDS011;41957;52.060;5.138;2022-12-13T12:06:06;19.27;;;9.60;;
56081;SDS011;41957;52.060;5.138;2022-12-13T12:08:44;18.58;;;8.88;;
56081;SDS011;41957;52.060;5.138;2022-12-13T12:11:23;17.95;;;8.98;;
56081;SDS011;41957;52.060;5.138;2022-12-13T12:13:55;17.70;;;9.00;;
56081;SDS011;41957;52.060;5.138;2022-12-13T12:16:29;18.25;;;9.45;;
56081;SDS011;41957;52.060;5.138;2022-12-13T12:19:01;19.10;;;9.57;;
56081;SDS011;41957;52.060;5.138;2022-12-13T12:21:36;18.88;;;9.88;;
56081;SDS011;41957;52.060;5.138;2022-12-13T12:24:23;17.88;;;8.93;;
56081;SDS011;41957;52.060;5.138;2022-12-13T12:29:53;18.33;;;8.50;;
56081;SDS011;41957;52.060;5.138;2022-12-13T12:37:39;18.35;;;8.40;;
56081;SDS011;41957;52.060;5.138;2022-12-13T12:43:30;20.10;;;8.38;;
56081;SDS011;41957;52.060;5.138;2022-12-13T12:51:30;16.50;;;8.27;;
56081;SDS011;41957;52.060;5.138;2022-12-13T12:56:45;21.05;;;9.65;;
56081;SDS011;41957;52.060;5.138;2022-12-13T12:59:36;18.95;;;8.68;;
56081;SDS011;41957;52.060;5.138;2022-12-13T13:02:16;19.08;;;8.85;;
56081;SDS011;41957;52.060;5.138;2022-12-13T13:04:48;16.90;;;8.80;;
56081;SDS011;41957;52.060;5.138;2022-12-13T13:07:21;17.33;;;8.52;;
56081;SDS011;41957;52.060;5.138;2022-12-13T13:09:53;17.30;;;7.72;;
56081;SDS011;41957;52.060;5.138;2022-12-13T13:12:19;17.38;;;8.35;;
56081;SDS011;41957;52.060;5.138;2022-12-13T13:14:45;19.13;;;9.65;;
56081;SDS011;41957;52.060;5.138;2022-12-13T13:20:10;17.25;;;8.70;;
56081;SDS011;41957;52.060;5.138;2022-12-13T13:22:40;17.20;;;8.38;;
56081;SDS011;41957;52.060;5.138;2022-12-13T13:27:32;17.48;;;7.93;;
56081;SDS011;41957;52.060;5.138;2022-12-13T13:30:14;20.13;;;9.43;;
56081;SDS011;41957;52.060;5.138;2022-12-13T13:32:40;18.80;;;8.35;;
56081;SDS011;41957;52.060;5.138;2022-12-13T13:37:57;19.55;;;8.75;;
56081;SDS011;41957;52.060;5.138;2022-12-13T13:40:36;17.15;;;7.95;;
56081;SDS011;41957;52.060;5.138;2022-12-13T14:09:10;17.27;;;7.45;;
56081;SDS011;41957;52.060;5.138;2022-12-13T14:26:52;15.70;;;6.85;;
56081;SDS011;41957;52.060;5.138;2022-12-13T14:29:32;16.77;;;7.72;;
56081;SDS011;41957;52.060;5.138;2022-12-13T14:32:26;17.77;;;8.43;;
56081;SDS011;41957;52.060;5.138;2022-12-13T14:34:57;17.05;;;8.20;;
56081;SDS011;41957;52.060;5.138;2022-12-13T14:37:30;17.83;;;8.30;;
56081;SDS011;41957;52.060;5.138;2022-12-13T14:39:58;17.85;;;8.82;;
56081;SDS011;41957;52.060;5.138;2022-12-13T14:42:26;17.65;;;8.38;;
56081;SDS011;41957;52.060;5.138;2022-12-13T14:48:03;16.63;;;7.40;;
56081;SDS011;41957;52.060;5.138;2022-12-13T14:50:33;16.98;;;8.18;;
56081;SDS011;41957;52.060;5.138;2022-12-13T14:53:00;18.42;;;8.73;;
56081;SDS011;41957;52.060;5.138;2022-12-13T14:55:31;16.98;;;7.20;;
56081;SDS011;41957;52.060;5.138;2022-12-13T14:58:01;17.50;;;8.20;;
56081;SDS011;41957;52.060;5.138;2022-12-13T15:00:29;16.55;;;7.90;;
56081;SDS011;41957;52.060;5.138;2022-12-13T15:02:59;17.00;;;8.10;;
56081;SDS011;41957;52.060;5.138;2022-12-13T15:06:00;18.33;;;8.27;;
56081;SDS011;41957;52.060;5.138;2022-12-13T15:08:22;17.33;;;7.80;;
56081;SDS011;41957;52.060;5.138;2022-12-13T15:10:52;18.33;;;8.15;;
56081;SDS011;41957;52.060;5.138;2022-12-13T15:13:24;17.90;;;8.15;;
56081;SDS011;41957;52.060;5.138;2022-12-13T15:15:51;17.20;;;7.95;;
56081;SDS011;41957;52.060;5.138;2022-12-13T15:18:23;17.33;;;8.18;;
56081;SDS011;41957;52.060;5.138;2022-12-13T15:20:50;17.00;;;7.45;;
56081;SDS011;41957;52.060;5.138;2022-12-13T15:26:15;19.13;;;8.35;;
56081;SDS011;41957;52.060;5.138;2022-12-13T15:28:43;18.77;;;8.30;;
56081;SDS011;41957;52.060;5.138;2022-12-13T15:31:10;18.20;;;8.13;;
56081;SDS011;41957;52.060;5.138;2022-12-13T15:33:37;17.75;;;7.78;;
56081;SDS011;41957;52.060;5.138;2022-12-13T15:38:39;16.58;;;7.63;;
56081;SDS011;41957;52.060;5.138;2022-12-13T15:41:29;17.50;;;7.88;;
56081;SDS011;41957;52.060;5.138;2022-12-13T15:44:01;17.67;;;8.77;;
56081;SDS011;41957;52.060;5.138;2022-12-13T15:46:32;18.70;;;8.32;;
56081;SDS011;41957;52.060;5.138;2022-12-13T15:49:02;18.13;;;8.88;;
56081;SDS011;41957;52.060;5.138;2022-12-13T15:51:28;18.50;;;7.13;;
56081;SDS011;41957;52.060;5.138;2022-12-13T15:54:00;19.27;;;7.82;;
56081;SDS011;41957;52.060;5.138;2022-12-13T15:56:36;19.45;;;8.90;;
56081;SDS011;41957;52.060;5.138;2022-12-13T15:59:04;19.27;;;9.48;;
56081;SDS011;41957;52.060;5.138;2022-12-13T16:01:31;18.98;;;7.97;;
56081;SDS011;41957;52.060;5.138;2022-12-13T16:03:59;19.80;;;9.63;;
56081;SDS011;41957;52.060;5.138;2022-12-13T16:06:28;20.15;;;8.65;;
56081;SDS011;41957;52.060;5.138;2022-12-13T16:09:02;18.98;;;10.25;;
56081;SDS011;41957;52.060;5.138;2022-12-13T16:11:31;18.95;;;9.27;;
56081;SDS011;41957;52.060;5.138;2022-12-13T16:16:55;20.65;;;10.25;;
56081;SDS011;41957;52.060;5.138;2022-12-13T16:19:22;18.65;;;10.10;;
56081;SDS011;41957;52.060;5.138;2022-12-13T16:21:48;18.65;;;10.05;;
56081;SDS011;41957;52.060;5.138;2022-12-13T16:24:13;19.73;;;10.80;;
56081;SDS011;41957;52.060;5.138;2022-12-13T16:26:42;20.60;;;10.20;;
56081;SDS011;41957;52.060;5.138;2022-12-13T16:29:14;32.38;;;11.27;;
56081;SDS011;41957;52.060;5.138;2022-12-13T16:31:43;18.85;;;9.43;;
56081;SDS011;41957;52.060;5.138;2022-12-13T16:34:09;18.35;;;8.93;;
56081;SDS011;41957;52.060;5.138;2022-12-13T16:36:34;17.65;;;9.73;;
56081;SDS011;41957;52.060;5.138;2022-12-13T16:39:00;17.60;;;8.90;;
56081;SDS011;41957;52.060;5.138;2022-12-13T16:41:26;17.25;;;8.60;;
56081;SDS011;41957;52.060;5.138;2022-12-13T16:43:52;19.98;;;8.75;;
56081;SDS011;41957;52.060;5.138;2022-12-13T16:46:20;29.17;;;9.88;;
56081;SDS011;41957;52.060;5.138;2022-12-13T16:48:46;18.88;;;8.80;;
56081;SDS011;41957;52.060;5.138;2022-12-13T16:51:11;18.30;;;8.73;;
56081;SDS011;41957;52.060;5.138;2022-12-13T16:53:37;17.42;;;9.00;;
56081;SDS011;41957;52.060;5.138;2022-12-13T16:56:02;17.95;;;8.80;;
56081;SDS011;41957;52.060;5.138;2022-12-13T16:58:28;16.67;;;8.43;;
56081;SDS011;41957;52.060;5.138;2022-12-13T17:00:53;19.05;;;8.07;;
56081;SDS011;41957;52.060;5.138;2022-12-13T17:03:19;17.33;;;8.80;;
56081;SDS011;41957;52.060;5.138;2022-12-13T17:05:45;16.58;;;8.57;;
56081;SDS011;41957;52.060;5.138;2022-12-13T17:08:11;17.35;;;8.55;;